sensor_id;sensor_type;location;lat;lon;timestamp;P1;durP1;ratioP1;P2;durP2;ratioP2
45136;SDS011;30894;51.740;19.498;2023-08-24T00:01:26;6.22;;;2.50;;
45136;SDS011;30894;51.740;19.498;2023-08-24T00:03:53;3.60;;;2.33;;
45136;SDS011;30894;51.740;19.498;2023-08-24T00:06:19;2.75;;;2.13;;
45136;SDS011;30894;51.740;19.498;2023-08-24T00:08:45;4.18;;;2.20;;
45136;SDS011;30894;51.740;19.498;2023-08-24T00:11:12;2.72;;;2.20;;
45136;SDS011;30894;51.740;19.498;2023-08-24T00:13:41;3.13;;;2.22;;
45136;SDS011;30894;51.740;19.498;2023-08-24T00:16:14;2.83;;;1.92;;
45136;SDS011;30894;51.740;19.498;2023-08-24T00:18:43;2.97;;;2.08;;
45136;SDS011;30894;51.740;19.498;2023-08-24T00:21:10;2.97;;;2.03;;
45136;SDS011;30894;51.740;19.498;2023-08-24T00:23:38;3.15;;;1.85;;
45136;SDS011;30894;51.740;19.498;2023-08-24T00:26:04;3.08;;;2.08;;
45136;SDS011;30894;51.740;19.498;2023-08-24T00:28:31;3.47;;;2.22;;
45136;SDS011;30894;51.740;19.498;2023-08-24T00:30:57;3.13;;;2.55;;
45136;SDS011;30894;51.740;19.498;2023-08-24T00:33:23;4.13;;;2.13;;
45136;SDS011;30894;51.740;19.498;2023-08-24T00:35:49;3.65;;;2.03;;
45136;SDS011;30894;51.740;19.498;2023-08-24T00:38:15;7.30;;;2.63;;
45136;SDS011;30894;51.740;19.498;2023-08-24T00:40:42;4.32;;;2.35;;
45136;SDS011;30894;51.740;19.498;2023-08-24T00:43:09;7.80;;;2.45;;
45136;SDS011;30894;51.740;19.498;2023-08-24T00:45:35;2.97;;;2.17;;
45136;SDS011;30894;51.740;19.498;2023-08-24T00:48:02;5.35;;;2.70;;
45136;SDS011;30894;51.740;19.498;2023-08-24T00:50:29;3.90;;;2.55;;
45136;SDS011;30894;51.740;19.498;2023-08-24T00:52:55;9.32;;;2.65;;
45136;SDS011;30894;51.740;19.498;2023-08-24T00:55:21;3.70;;;2.33;;
45136;SDS011;30894;51.740;19.498;2023-08-24T00:57:48;3.47;;;2.17;;
45136;SDS011;30894;51.740;19.498;2023-08-24T01:00:15;3.35;;;2.40;;
45136;SDS011;30894;51.740;19.498;2023-08-24T01:02:42;6.47;;;2.60;;
45136;SDS011;30894;51.740;19.498;2023-08-24T01:05:08;3.50;;;2.03;;
45136;SDS011;30894;51.740;19.498;2023-08-24T01:07:35;4.93;;;2.40;;
45136;SDS011;30894;51.740;19.498;2023-08-24T01:10:04;9.27;;;2.85;;
45136;SDS011;30894;51.740;19.498;2023-08-24T01:12:40;3.83;;;2.05;;
45136;SDS011;30894;51.740;19.498;2023-08-24T01:18:14;4.93;;;2.75;;
45136;SDS011;30894;51.740;19.498;2023-08-24T01:20:42;5.07;;;2.47;;
45136;SDS011;30894;51.740;19.498;2023-08-24T01:26:04;3.65;;;2.28;;
45136;SDS011;30894;51.740;19.498;2023-08-24T01:28:41;3.42;;;2.47;;
45136;SDS011;30894;51.740;19.498;2023-08-24T01:31:10;3.70;;;2.30;;
45136;SDS011;30894;51.740;19.498;2023-08-24T01:33:36;4.95;;;2.28;;
45136;SDS011;30894;51.740;19.498;2023-08-24T01:36:02;5.00;;;2.45;;
45136;SDS011;30894;51.740;19.498;2023-08-24T01:38:29;4.85;;;2.40;;
45136;SDS011;30894;51.740;19.498;2023-08-24T01:41:08;4.32;;;2.47;;
45136;SDS011;30894;51.740;19.498;2023-08-24T01:43:43;3.70;;;2.65;;
45136;SDS011;30894;51.740;19.498;2023-08-24T01:46:15;5.53;;;2.20;;
45136;SDS011;30894;51.740;19.498;2023-08-24T01:48:43;4.07;;;2.20;;
45136;SDS011;30894;51.740;19.498;2023-08-24T01:51:10;7.43;;;2.50;;
45136;SDS011;30894;51.740;19.498;2023-08-24T01:53:38;3.13;;;1.80;;
45136;SDS011;30894;51.740;19.498;2023-08-24T01:56:09;6.85;;;2.00;;
45136;SDS011;30894;51.740;19.498;2023-08-24T01:58:36;2.33;;;1.85;;
45136;SDS011;30894;51.740;19.498;2023-08-24T02:01:04;3.95;;;2.03;;
45136;SDS011;30894;51.740;19.498;2023-08-24T02:03:31;3.47;;;1.90;;
45136;SDS011;30894;51.740;19.498;2023-08-24T02:06:00;3.08;;;2.00;;
45136;SDS011;30894;51.740;19.498;2023-08-24T02:08:26;4.20;;;2.58;;
45136;SDS011;30894;51.740;19.498;2023-08-24T02:10:52;3.28;;;2.30;;
45136;SDS011;30894;51.740;19.498;2023-08-24T02:13:19;5.00;;;1.85;;
45136;SDS011;30894;51.740;19.498;2023-08-24T02:15:45;3.92;;;2.05;;
45136;SDS011;30894;51.740;19.498;2023-08-24T02:18:11;3.17;;;1.83;;
45136;SDS011;30894;51.740;19.498;2023-08-24T02:20:37;3.63;;;2.13;;
45136;SDS011;30894;51.740;19.498;2023-08-24T02:23:04;5.50;;;2.40;;
45136;SDS011;30894;51.740;19.498;2023-08-24T02:25:30;4.32;;;1.85;;
45136;SDS011;30894;51.740;19.498;2023-08-24T02:27:57;5.10;;;2.83;;
45136;SDS011;30894;51.740;19.498;2023-08-24T02:30:23;3.90;;;2.13;;
45136;SDS011;30894;51.740;19.498;2023-08-24T02:32:49;3.78;;;2.10;;
45136;SDS011;30894;51.740;19.498;2023-08-24T02:35:16;3.20;;;2.28;;
45136;SDS011;30894;51.740;19.498;2023-08-24T02:37:43;3.75;;;2.22;;
45136;SDS011;30894;51.740;19.498;2023-08-24T02:40:12;3.10;;;2.13;;
45136;SDS011;30894;51.740;19.498;2023-08-24T02:42:38;2.47;;;1.85;;
45136;SDS011;30894;51.740;19.498;2023-08-24T02:45:04;4.60;;;2.40;;
45136;SDS011;30894;51.740;19.498;2023-08-24T02:47:31;4.47;;;2.45;;
45136;SDS011;30894;51.740;19.498;2023-08-24T02:50:02;3.08;;;1.88;;
45136;SDS011;30894;51.740;19.498;2023-08-24T02:52:31;4.07;;;2.30;;
45136;SDS011;30894;51.740;19.498;2023-08-24T02:54:58;4.43;;;1.80;;
45136;SDS011;30894;51.740;19.498;2023-08-24T02:57:24;4.50;;;1.90;;
45136;SDS011;30894;51.740;19.498;2023-08-24T02:59:50;4.80;;;1.70;;
45136;SDS011;30894;51.740;19.498;2023-08-24T03:02:17;5.03;;;2.25;;
45136;SDS011;30894;51.740;19.498;2023-08-24T03:04:42;5.15;;;2.00;;
45136;SDS011;30894;51.740;19.498;2023-08-24T03:07:10;4.40;;;2.22;;
45136;SDS011;30894;51.740;19.498;2023-08-24T03:09:36;3.88;;;1.77;;
45136;SDS011;30894;51.740;19.498;2023-08-24T03:12:02;2.80;;;1.80;;
45136;SDS011;30894;51.740;19.498;2023-08-24T03:14:28;5.57;;;2.60;;
45136;SDS011;30894;51.740;19.498;2023-08-24T03:16:55;5.38;;;2.45;;
45136;SDS011;30894;51.740;19.498;2023-08-24T03:19:21;4.10;;;2.47;;
45136;SDS011;30894;51.740;19.498;2023-08-24T03:21:48;3.25;;;2.28;;
45136;SDS011;30894;51.740;19.498;2023-08-24T03:24:14;3.17;;;2.00;;
45136;SDS011;30894;51.740;19.498;2023-08-24T03:26:40;2.70;;;1.83;;
45136;SDS011;30894;51.740;19.498;2023-08-24T03:29:06;5.55;;;2.50;;
45136;SDS011;30894;51.740;19.498;2023-08-24T03:31:33;4.88;;;2.58;;
45136;SDS011;30894;51.740;19.498;2023-08-24T03:33:59;7.57;;;2.00;;
45136;SDS011;30894;51.740;19.498;2023-08-24T03:36:25;5.38;;;2.05;;
45136;SDS011;30894;51.740;19.498;2023-08-24T03:38:52;5.22;;;2.25;;
45136;SDS011;30894;51.740;19.498;2023-08-24T03:41:18;3.70;;;2.35;;
45136;SDS011;30894;51.740;19.498;2023-08-24T03:43:44;4.15;;;2.00;;
45136;SDS011;30894;51.740;19.498;2023-08-24T03:46:11;4.90;;;1.98;;
45136;SDS011;30894;51.740;19.498;2023-08-24T03:48:36;3.45;;;1.95;;
45136;SDS011;30894;51.740;19.498;2023-08-24T03:51:06;2.10;;;1.90;;
45136;SDS011;30894;51.740;19.498;2023-08-24T03:53:32;5.47;;;2.45;;
45136;SDS011;30894;51.740;19.498;2023-08-24T03:55:58;3.50;;;2.00;;
45136;SDS011;30894;51.740;19.498;2023-08-24T03:58:24;3.78;;;2.17;;
45136;SDS011;30894;51.740;19.498;2023-08-24T04:00:50;4.35;;;2.47;;
45136;SDS011;30894;51.740;19.498;2023-08-24T04:03:16;5.88;;;2.00;;
45136;SDS011;30894;51.740;19.498;2023-08-24T04:05:42;6.10;;;2.20;;
45136;SDS011;30894;51.740;19.498;2023-08-24T04:08:08;5.35;;;2.67;;
45136;SDS011;30894;51.740;19.498;2023-08-24T04:10:35;2.92;;;2.03;;
45136;SDS011;30894;51.740;19.498;2023-08-24T04:13:02;4.07;;;2.28;;
45136;SDS011;30894;51.740;19.498;2023-08-24T04:15:29;9.35;;;2.35;;
45136;SDS011;30894;51.740;19.498;2023-08-24T04:17:55;5.20;;;2.30;;
45136;SDS011;30894;51.740;19.498;2023-08-24T04:20:22;5.25;;;2.50;;
45136;SDS011;30894;51.740;19.498;2023-08-24T04:22:48;5.30;;;2.47;;
45136;SDS011;30894;51.740;19.498;2023-08-24T04:25:14;3.20;;;2.58;;
45136;SDS011;30894;51.740;19.498;2023-08-24T04:27:40;4.03;;;2.55;;
45136;SDS011;30894;51.740;19.498;2023-08-24T04:30:07;8.63;;;2.30;;
45136;SDS011;30894;51.740;19.498;2023-08-24T04:32:37;6.43;;;2.40;;
45136;SDS011;30894;51.740;19.498;2023-08-24T04:35:03;8.20;;;2.85;;
45136;SDS011;30894;51.740;19.498;2023-08-24T04:37:30;2.75;;;2.10;;
45136;SDS011;30894;51.740;19.498;2023-08-24T04:39:58;3.25;;;2.08;;
45136;SDS011;30894;51.740;19.498;2023-08-24T04:42:24;5.90;;;2.55;;
45136;SDS011;30894;51.740;19.498;2023-08-24T04:44:50;4.55;;;2.30;;
45136;SDS011;30894;51.740;19.498;2023-08-24T04:47:16;10.13;;;3.38;;
45136;SDS011;30894;51.740;19.498;2023-08-24T04:49:43;6.20;;;2.70;;
45136;SDS011;30894;51.740;19.498;2023-08-24T04:52:09;6.28;;;2.63;;
45136;SDS011;30894;51.740;19.498;2023-08-24T04:54:35;5.97;;;3.00;;
45136;SDS011;30894;51.740;19.498;2023-08-24T04:57:01;8.57;;;2.70;;
45136;SDS011;30894;51.740;19.498;2023-08-24T04:59:28;4.70;;;2.60;;
45136;SDS011;30894;51.740;19.498;2023-08-24T05:01:54;7.72;;;3.08;;
45136;SDS011;30894;51.740;19.498;2023-08-24T05:04:20;4.40;;;2.47;;
45136;SDS011;30894;51.740;19.498;2023-08-24T05:06:46;5.43;;;3.05;;
45136;SDS011;30894;51.740;19.498;2023-08-24T05:09:12;8.80;;;2.70;;
45136;SDS011;30894;51.740;19.498;2023-08-24T05:11:41;3.58;;;2.65;;
45136;SDS011;30894;51.740;19.498;2023-08-24T05:14:07;7.35;;;2.70;;
45136;SDS011;30894;51.740;19.498;2023-08-24T05:16:33;10.25;;;3.28;;
45136;SDS011;30894;51.740;19.498;2023-08-24T05:18:59;7.10;;;3.20;;
45136;SDS011;30894;51.740;19.498;2023-08-24T05:21:27;8.95;;;2.85;;
45136;SDS011;30894;51.740;19.498;2023-08-24T05:23:53;6.95;;;3.13;;
45136;SDS011;30894;51.740;19.498;2023-08-24T05:26:19;7.90;;;2.85;;
45136;SDS011;30894;51.740;19.498;2023-08-24T05:28:48;5.75;;;2.70;;
45136;SDS011;30894;51.740;19.498;2023-08-24T05:31:14;3.53;;;2.50;;
45136;SDS011;30894;51.740;19.498;2023-08-24T05:33:40;6.18;;;2.65;;
45136;SDS011;30894;51.740;19.498;2023-08-24T05:36:06;7.28;;;2.70;;
45136;SDS011;30894;51.740;19.498;2023-08-24T05:38:32;4.35;;;2.30;;
45136;SDS011;30894;51.740;19.498;2023-08-24T05:40:58;6.70;;;2.85;;
45136;SDS011;30894;51.740;19.498;2023-08-24T05:43:25;5.72;;;2.20;;
45136;SDS011;30894;51.740;19.498;2023-08-24T05:45:51;6.70;;;2.70;;
45136;SDS011;30894;51.740;19.498;2023-08-24T05:48:17;5.28;;;2.17;;
45136;SDS011;30894;51.740;19.498;2023-08-24T05:50:44;4.60;;;2.15;;
45136;SDS011;30894;51.740;19.498;2023-08-24T05:53:12;8.63;;;2.72;;
45136;SDS011;30894;51.740;19.498;2023-08-24T05:55:38;5.60;;;2.30;;
45136;SDS011;30894;51.740;19.498;2023-08-24T05:58:04;4.22;;;1.92;;
45136;SDS011;30894;51.740;19.498;2023-08-24T06:00:30;5.00;;;2.20;;
45136;SDS011;30894;51.740;19.498;2023-08-24T06:02:57;6.80;;;2.22;;
45136;SDS011;30894;51.740;19.498;2023-08-24T06:05:23;3.80;;;2.30;;
45136;SDS011;30894;51.740;19.498;2023-08-24T06:07:49;8.80;;;2.42;;
45136;SDS011;30894;51.740;19.498;2023-08-24T06:10:15;6.47;;;2.42;;
45136;SDS011;30894;51.740;19.498;2023-08-24T06:12:42;5.65;;;2.42;;
45136;SDS011;30894;51.740;19.498;2023-08-24T06:15:08;5.57;;;2.13;;
45136;SDS011;30894;51.740;19.498;2023-08-24T06:17:36;5.05;;;2.25;;
45136;SDS011;30894;51.740;19.498;2023-08-24T06:20:03;7.07;;;2.50;;
45136;SDS011;30894;51.740;19.498;2023-08-24T06:22:29;8.68;;;2.80;;
45136;SDS011;30894;51.740;19.498;2023-08-24T06:24:56;3.65;;;2.05;;
45136;SDS011;30894;51.740;19.498;2023-08-24T06:27:26;4.55;;;2.28;;
45136;SDS011;30894;51.740;19.498;2023-08-24T06:29:52;2.58;;;1.75;;
45136;SDS011;30894;51.740;19.498;2023-08-24T06:32:18;4.20;;;1.83;;
45136;SDS011;30894;51.740;19.498;2023-08-24T06:34:44;3.80;;;2.10;;
45136;SDS011;30894;51.740;19.498;2023-08-24T06:37:11;3.92;;;1.88;;
45136;SDS011;30894;51.740;19.498;2023-08-24T06:39:37;3.50;;;1.98;;
45136;SDS011;30894;51.740;19.498;2023-08-24T06:42:05;7.38;;;2.10;;
45136;SDS011;30894;51.740;19.498;2023-08-24T06:44:31;3.63;;;1.67;;
45136;SDS011;30894;51.740;19.498;2023-08-24T06:46:58;4.38;;;1.73;;
45136;SDS011;30894;51.740;19.498;2023-08-24T06:49:24;9.18;;;2.35;;
45136;SDS011;30894;51.740;19.498;2023-08-24T06:51:51;5.88;;;1.80;;
45136;SDS011;30894;51.740;19.498;2023-08-24T06:54:17;5.50;;;1.88;;
45136;SDS011;30894;51.740;19.498;2023-08-24T06:56:43;5.35;;;2.05;;
45136;SDS011;30894;51.740;19.498;2023-08-24T06:59:09;4.65;;;2.30;;
45136;SDS011;30894;51.740;19.498;2023-08-24T07:01:38;6.30;;;1.70;;
45136;SDS011;30894;51.740;19.498;2023-08-24T07:04:06;3.03;;;1.73;;
45136;SDS011;30894;51.740;19.498;2023-08-24T07:06:35;4.95;;;1.90;;
45136;SDS011;30894;51.740;19.498;2023-08-24T07:09:02;6.05;;;1.95;;
45136;SDS011;30894;51.740;19.498;2023-08-24T07:11:32;4.45;;;2.20;;
45136;SDS011;30894;51.740;19.498;2023-08-24T07:13:58;3.70;;;1.88;;
45136;SDS011;30894;51.740;19.498;2023-08-24T07:16:27;3.03;;;1.70;;
45136;SDS011;30894;51.740;19.498;2023-08-24T07:18:53;5.25;;;1.95;;
45136;SDS011;30894;51.740;19.498;2023-08-24T07:21:19;2.95;;;1.70;;
45136;SDS011;30894;51.740;19.498;2023-08-24T07:23:45;4.22;;;1.80;;
45136;SDS011;30894;51.740;19.498;2023-08-24T07:26:12;3.00;;;1.65;;
45136;SDS011;30894;51.740;19.498;2023-08-24T07:28:38;3.70;;;1.80;;
45136;SDS011;30894;51.740;19.498;2023-08-24T07:31:08;6.57;;;1.63;;
45136;SDS011;30894;51.740;19.498;2023-08-24T07:33:36;3.17;;;1.90;;
45136;SDS011;30894;51.740;19.498;2023-08-24T07:36:06;4.28;;;1.60;;
45136;SDS011;30894;51.740;19.498;2023-08-24T07:38:32;3.50;;;2.33;;
45136;SDS011;30894;51.740;19.498;2023-08-24T07:40:58;3.92;;;1.65;;
45136;SDS011;30894;51.740;19.498;2023-08-24T07:43:24;3.67;;;1.48;;
45136;SDS011;30894;51.740;19.498;2023-08-24T07:45:51;2.65;;;1.83;;
45136;SDS011;30894;51.740;19.498;2023-08-24T07:48:17;4.45;;;1.60;;
45136;SDS011;30894;51.740;19.498;2023-08-24T07:50:44;4.00;;;1.75;;
45136;SDS011;30894;51.740;19.498;2023-08-24T07:53:10;8.07;;;2.00;;
45136;SDS011;30894;51.740;19.498;2023-08-24T07:55:37;2.85;;;1.65;;
45136;SDS011;30894;51.740;19.498;2023-08-24T07:58:03;2.38;;;1.70;;
45136;SDS011;30894;51.740;19.498;2023-08-24T08:00:29;8.15;;;1.70;;
45136;SDS011;30894;51.740;19.498;2023-08-24T08:02:56;1.90;;;1.40;;
45136;SDS011;30894;51.740;19.498;2023-08-24T08:05:22;3.53;;;1.73;;
45136;SDS011;30894;51.740;19.498;2023-08-24T08:07:49;4.20;;;1.65;;
45136;SDS011;30894;51.740;19.498;2023-08-24T08:10:15;3.50;;;1.75;;
45136;SDS011;30894;51.740;19.498;2023-08-24T08:12:42;2.67;;;1.50;;
45136;SDS011;30894;51.740;19.498;2023-08-24T08:15:09;3.92;;;1.48;;
45136;SDS011;30894;51.740;19.498;2023-08-24T08:17:35;2.38;;;1.40;;
45136;SDS011;30894;51.740;19.498;2023-08-24T08:20:01;3.65;;;1.60;;
45136;SDS011;30894;51.740;19.498;2023-08-24T08:22:28;1.73;;;1.27;;
45136;SDS011;30894;51.740;19.498;2023-08-24T08:24:55;3.35;;;1.90;;
45136;SDS011;30894;51.740;19.498;2023-08-24T08:27:24;3.08;;;1.45;;
45136;SDS011;30894;51.740;19.498;2023-08-24T08:29:51;1.90;;;1.33;;
45136;SDS011;30894;51.740;19.498;2023-08-24T08:32:17;2.00;;;1.10;;
45136;SDS011;30894;51.740;19.498;2023-08-24T08:34:43;2.17;;;1.17;;
45136;SDS011;30894;51.740;19.498;2023-08-24T08:37:10;1.92;;;1.30;;
45136;SDS011;30894;51.740;19.498;2023-08-24T08:39:36;5.35;;;1.52;;
45136;SDS011;30894;51.740;19.498;2023-08-24T08:42:02;2.55;;;1.60;;
45136;SDS011;30894;51.740;19.498;2023-08-24T08:44:29;2.95;;;1.60;;
45136;SDS011;30894;51.740;19.498;2023-08-24T08:46:59;4.88;;;1.52;;
45136;SDS011;30894;51.740;19.498;2023-08-24T08:49:26;4.65;;;2.00;;
45136;SDS011;30894;51.740;19.498;2023-08-24T08:51:52;5.72;;;1.92;;
45136;SDS011;30894;51.740;19.498;2023-08-24T08:54:18;2.58;;;1.60;;
45136;SDS011;30894;51.740;19.498;2023-08-24T08:56:45;3.00;;;1.52;;
45136;SDS011;30894;51.740;19.498;2023-08-24T08:59:12;4.72;;;1.50;;
45136;SDS011;30894;51.740;19.498;2023-08-24T09:01:40;2.88;;;1.52;;
45136;SDS011;30894;51.740;19.498;2023-08-24T09:04:09;5.13;;;2.00;;
45136;SDS011;30894;51.740;19.498;2023-08-24T09:06:36;3.13;;;1.63;;
45136;SDS011;30894;51.740;19.498;2023-08-24T09:09:04;4.68;;;1.70;;
45136;SDS011;30894;51.740;19.498;2023-08-24T09:11:30;2.15;;;1.58;;
45136;SDS011;30894;51.740;19.498;2023-08-24T09:13:57;2.65;;;1.30;;
45136;SDS011;30894;51.740;19.498;2023-08-24T09:16:24;2.83;;;1.45;;
45136;SDS011;30894;51.740;19.498;2023-08-24T09:18:55;2.70;;;1.55;;
45136;SDS011;30894;51.740;19.498;2023-08-24T09:21:22;1.30;;;1.10;;
45136;SDS011;30894;51.740;19.498;2023-08-24T09:23:54;0.95;;;0.90;;
45136;SDS011;30894;51.740;19.498;2023-08-24T09:26:27;1.35;;;1.17;;
45136;SDS011;30894;51.740;19.498;2023-08-24T09:29:05;3.92;;;1.10;;
45136;SDS011;30894;51.740;19.498;2023-08-24T09:31:41;4.75;;;1.30;;
45136;SDS011;30894;51.740;19.498;2023-08-24T09:34:11;2.63;;;1.13;;
45136;SDS011;30894;51.740;19.498;2023-08-24T09:36:38;3.42;;;1.10;;
45136;SDS011;30894;51.740;19.498;2023-08-24T09:39:05;2.25;;;1.05;;
45136;SDS011;30894;51.740;19.498;2023-08-24T09:41:45;2.45;;;1.00;;
45136;SDS011;30894;51.740;19.498;2023-08-24T09:44:17;1.83;;;1.30;;
45136;SDS011;30894;51.740;19.498;2023-08-24T09:46:43;5.45;;;1.30;;
45136;SDS011;30894;51.740;19.498;2023-08-24T09:49:11;1.13;;;1.00;;
45136;SDS011;30894;51.740;19.498;2023-08-24T09:51:38;3.00;;;1.17;;
45136;SDS011;30894;51.740;19.498;2023-08-24T09:54:10;3.08;;;1.10;;
45136;SDS011;30894;51.740;19.498;2023-08-24T09:56:38;2.15;;;1.05;;
45136;SDS011;30894;51.740;19.498;2023-08-24T09:59:10;1.83;;;1.10;;
45136;SDS011;30894;51.740;19.498;2023-08-24T10:01:39;2.30;;;1.10;;
45136;SDS011;30894;51.740;19.498;2023-08-24T10:04:21;2.22;;;0.95;;
45136;SDS011;30894;51.740;19.498;2023-08-24T10:07:03;4.28;;;1.30;;
45136;SDS011;30894;51.740;19.498;2023-08-24T10:09:44;0.80;;;0.80;;
45136;SDS011;30894;51.740;19.498;2023-08-24T10:12:24;2.83;;;1.33;;
45136;SDS011;30894;51.740;19.498;2023-08-24T10:15:00;1.10;;;0.90;;
45136;SDS011;30894;51.740;19.498;2023-08-24T10:17:32;2.33;;;1.40;;
45136;SDS011;30894;51.740;19.498;2023-08-24T10:20:02;2.28;;;1.10;;
45136;SDS011;30894;51.740;19.498;2023-08-24T10:22:34;1.95;;;1.02;;
45136;SDS011;30894;51.740;19.498;2023-08-24T10:25:02;1.20;;;1.10;;
45136;SDS011;30894;51.740;19.498;2023-08-24T10:27:29;2.08;;;1.10;;
45136;SDS011;30894;51.740;19.498;2023-08-24T10:29:56;0.85;;;0.85;;
45136;SDS011;30894;51.740;19.498;2023-08-24T10:32:25;1.50;;;1.15;;
45136;SDS011;30894;51.740;19.498;2023-08-24T10:34:53;2.55;;;0.95;;
45136;SDS011;30894;51.740;19.498;2023-08-24T10:37:26;2.05;;;1.13;;
45136;SDS011;30894;51.740;19.498;2023-08-24T10:39:53;2.15;;;1.00;;
45136;SDS011;30894;51.740;19.498;2023-08-24T10:42:19;2.47;;;1.10;;
45136;SDS011;30894;51.740;19.498;2023-08-24T10:44:47;2.92;;;1.13;;
45136;SDS011;30894;51.740;19.498;2023-08-24T10:47:18;1.70;;;1.02;;
45136;SDS011;30894;51.740;19.498;2023-08-24T10:52:31;2.10;;;1.20;;
45136;SDS011;30894;51.740;19.498;2023-08-24T10:55:00;1.35;;;1.13;;
45136;SDS011;30894;51.740;19.498;2023-08-24T10:57:36;1.63;;;1.23;;
45136;SDS011;30894;51.740;19.498;2023-08-24T11:00:10;2.13;;;1.10;;
45136;SDS011;30894;51.740;19.498;2023-08-24T11:02:41;1.13;;;1.02;;
45136;SDS011;30894;51.740;19.498;2023-08-24T11:05:25;2.58;;;1.20;;
45136;SDS011;30894;51.740;19.498;2023-08-24T11:07:56;1.33;;;0.93;;
45136;SDS011;30894;51.740;19.498;2023-08-24T11:10:28;2.65;;;1.30;;
45136;SDS011;30894;51.740;19.498;2023-08-24T11:13:19;3.22;;;1.20;;
45136;SDS011;30894;51.740;19.498;2023-08-24T11:15:51;2.25;;;1.25;;
45136;SDS011;30894;51.740;19.498;2023-08-24T11:23:27;2.80;;;1.05;;
45136;SDS011;30894;51.740;19.498;2023-08-24T11:25:55;2.40;;;1.17;;
45136;SDS011;30894;51.740;19.498;2023-08-24T11:28:27;2.03;;;1.27;;
45136;SDS011;30894;51.740;19.498;2023-08-24T11:30:56;1.47;;;1.23;;
45136;SDS011;30894;51.740;19.498;2023-08-24T11:33:30;3.28;;;1.50;;
45136;SDS011;30894;51.740;19.498;2023-08-24T11:35:58;1.58;;;1.02;;
45136;SDS011;30894;51.740;19.498;2023-08-24T11:38:35;2.03;;;1.15;;
45136;SDS011;30894;51.740;19.498;2023-08-24T11:41:10;1.30;;;1.20;;
45136;SDS011;30894;51.740;19.498;2023-08-24T11:43:42;1.30;;;1.05;;
45136;SDS011;30894;51.740;19.498;2023-08-24T11:46:15;1.48;;;1.20;;
45136;SDS011;30894;51.740;19.498;2023-08-24T11:48:42;5.95;;;1.50;;
45136;SDS011;30894;51.740;19.498;2023-08-24T11:51:12;5.75;;;1.40;;
45136;SDS011;30894;51.740;19.498;2023-08-24T11:53:39;1.30;;;1.20;;
45136;SDS011;30894;51.740;19.498;2023-08-24T11:56:08;3.75;;;1.17;;
45136;SDS011;30894;51.740;19.498;2023-08-24T11:58:41;4.18;;;1.52;;
45136;SDS011;30894;51.740;19.498;2023-08-24T12:01:12;1.30;;;1.20;;
45136;SDS011;30894;51.740;19.498;2023-08-24T12:03:38;2.45;;;1.40;;
45136;SDS011;30894;51.740;19.498;2023-08-24T12:06:14;1.83;;;1.45;;
45136;SDS011;30894;51.740;19.498;2023-08-24T12:08:42;2.60;;;1.55;;
45136;SDS011;30894;51.740;19.498;2023-08-24T12:11:15;3.40;;;1.35;;
45136;SDS011;30894;51.740;19.498;2023-08-24T12:13:49;2.83;;;1.15;;
45136;SDS011;30894;51.740;19.498;2023-08-24T12:16:17;4.23;;;1.73;;
45136;SDS011;30894;51.740;19.498;2023-08-24T12:21:26;4.53;;;1.63;;
45136;SDS011;30894;51.740;19.498;2023-08-24T12:23:57;1.88;;;1.30;;
45136;SDS011;30894;51.740;19.498;2023-08-24T12:26:35;1.35;;;1.25;;
45136;SDS011;30894;51.740;19.498;2023-08-24T12:31:34;1.35;;;1.25;;
45136;SDS011;30894;51.740;19.498;2023-08-24T12:34:02;2.75;;;1.45;;
45136;SDS011;30894;51.740;19.498;2023-08-24T12:36:38;2.08;;;1.30;;
45136;SDS011;30894;51.740;19.498;2023-08-24T12:39:07;3.38;;;1.40;;
45136;SDS011;30894;51.740;19.498;2023-08-24T12:41:35;2.72;;;1.48;;
45136;SDS011;30894;51.740;19.498;2023-08-24T12:44:01;1.67;;;1.30;;
45136;SDS011;30894;51.740;19.498;2023-08-24T12:46:31;4.78;;;1.40;;
45136;SDS011;30894;51.740;19.498;2023-08-24T12:48:59;3.47;;;1.58;;
45136;SDS011;30894;51.740;19.498;2023-08-24T12:51:26;2.90;;;1.33;;
45136;SDS011;30894;51.740;19.498;2023-08-24T12:53:52;7.65;;;1.40;;
45136;SDS011;30894;51.740;19.498;2023-08-24T12:56:20;2.55;;;1.27;;
45136;SDS011;30894;51.740;19.498;2023-08-24T12:58:46;1.52;;;1.42;;
45136;SDS011;30894;51.740;19.498;2023-08-24T13:01:13;2.15;;;1.40;;
45136;SDS011;30894;51.740;19.498;2023-08-24T13:03:39;1.52;;;1.17;;
45136;SDS011;30894;51.740;19.498;2023-08-24T13:06:06;3.50;;;1.40;;
45136;SDS011;30894;51.740;19.498;2023-08-24T13:08:32;1.52;;;1.25;;
45136;SDS011;30894;51.740;19.498;2023-08-24T13:10:59;2.00;;;1.27;;
45136;SDS011;30894;51.740;19.498;2023-08-24T13:13:26;3.00;;;1.45;;
45136;SDS011;30894;51.740;19.498;2023-08-24T13:15:54;4.00;;;1.15;;
45136;SDS011;30894;51.740;19.498;2023-08-24T13:18:21;3.33;;;1.30;;
45136;SDS011;30894;51.740;19.498;2023-08-24T13:20:47;2.45;;;1.08;;
45136;SDS011;30894;51.740;19.498;2023-08-24T13:23:13;1.77;;;1.08;;
45136;SDS011;30894;51.740;19.498;2023-08-24T13:25:40;1.50;;;1.23;;
45136;SDS011;30894;51.740;19.498;2023-08-24T13:28:06;1.45;;;1.00;;
45136;SDS011;30894;51.740;19.498;2023-08-24T13:30:33;5.07;;;1.25;;
45136;SDS011;30894;51.740;19.498;2023-08-24T13:32:59;3.15;;;1.38;;
45136;SDS011;30894;51.740;19.498;2023-08-24T13:35:26;1.67;;;1.13;;
45136;SDS011;30894;51.740;19.498;2023-08-24T13:37:55;1.48;;;1.10;;
45136;SDS011;30894;51.740;19.498;2023-08-24T13:40:24;2.47;;;1.30;;
45136;SDS011;30894;51.740;19.498;2023-08-24T13:42:50;1.95;;;1.27;;
45136;SDS011;30894;51.740;19.498;2023-08-24T13:45:17;1.75;;;1.10;;
45136;SDS011;30894;51.740;19.498;2023-08-24T13:47:46;2.80;;;1.55;;
45136;SDS011;30894;51.740;19.498;2023-08-24T13:50:21;1.60;;;1.20;;
45136;SDS011;30894;51.740;19.498;2023-08-24T13:52:49;1.92;;;1.20;;
45136;SDS011;30894;51.740;19.498;2023-08-24T13:55:16;1.10;;;1.00;;
45136;SDS011;30894;51.740;19.498;2023-08-24T13:57:43;1.42;;;1.20;;
45136;SDS011;30894;51.740;19.498;2023-08-24T14:00:11;3.72;;;1.00;;
45136;SDS011;30894;51.740;19.498;2023-08-24T14:02:38;1.67;;;1.05;;
45136;SDS011;30894;51.740;19.498;2023-08-24T14:05:08;1.23;;;1.10;;
45136;SDS011;30894;51.740;19.498;2023-08-24T14:07:37;2.28;;;1.15;;
45136;SDS011;30894;51.740;19.498;2023-08-24T14:10:07;1.67;;;1.10;;
45136;SDS011;30894;51.740;19.498;2023-08-24T14:12:35;1.65;;;1.00;;
45136;SDS011;30894;51.740;19.498;2023-08-24T14:15:10;1.80;;;1.20;;
45136;SDS011;30894;51.740;19.498;2023-08-24T14:17:37;3.85;;;1.23;;
45136;SDS011;30894;51.740;19.498;2023-08-24T14:20:04;1.38;;;1.00;;
45136;SDS011;30894;51.740;19.498;2023-08-24T14:22:44;1.63;;;1.00;;
45136;SDS011;30894;51.740;19.498;2023-08-24T14:25:13;2.53;;;1.17;;
45136;SDS011;30894;51.740;19.498;2023-08-24T14:27:40;1.40;;;1.00;;
45136;SDS011;30894;51.740;19.498;2023-08-24T14:30:08;4.43;;;1.27;;
45136;SDS011;30894;51.740;19.498;2023-08-24T14:32:35;1.63;;;1.08;;
45136;SDS011;30894;51.740;19.498;2023-08-24T14:35:04;2.45;;;1.10;;
45136;SDS011;30894;51.740;19.498;2023-08-24T14:37:34;4.65;;;1.30;;
45136;SDS011;30894;51.740;19.498;2023-08-24T14:40:21;2.78;;;1.23;;
45136;SDS011;30894;51.740;19.498;2023-08-24T14:42:47;1.80;;;1.10;;
45136;SDS011;30894;51.740;19.498;2023-08-24T14:45:15;2.00;;;1.20;;
45136;SDS011;30894;51.740;19.498;2023-08-24T14:47:45;4.80;;;1.17;;
45136;SDS011;30894;51.740;19.498;2023-08-24T14:50:12;1.20;;;1.10;;
45136;SDS011;30894;51.740;19.498;2023-08-24T14:52:39;5.03;;;1.23;;
45136;SDS011;30894;51.740;19.498;2023-08-24T14:55:06;1.77;;;1.20;;
45136;SDS011;30894;51.740;19.498;2023-08-24T14:57:40;1.77;;;1.00;;